Time;durP1;ratioP1;P1;durP2;ratioP2;P2;SDS_P1;SDS_P2;PMS_P1;PMS_P2;Temp;Humidity;BMP_temperature;BMP_pressure;BME280_temperature;BME280_humidity;BME280_pressure;Samples;Min_cycle;Max_cycle;Signal;HPM_P1;HPM_P2
2023/04/13 00:02:08;;;;;;;0.53;0.53;;;;;;;;;;6215684;23;20433;-66
2023/04/13 00:04:35;;;;;;;0.57;0.40;;;;;;;;;;6215994;23;20379;-66
2023/04/13 00:07:02;;;;;;;0.67;0.57;;;;;;;;;;6215874;23;20415;-66
2023/04/13 00:09:31;;;;;;;8.77;1.13;;;;;;;;;;6215712;23;20371;-66
2023/04/13 00:11:57;;;;;;;0.73;0.73;;;;;;;;;;6213923;23;20398;-65
2023/04/13 00:14:32;;;;;;;0.43;0.43;;;;;;;;;;6215451;23;20841;-66
2023/04/13 00:16:58;;;;;;;0.50;0.50;;;;;;;;;;6215841;23;20406;-66
2023/04/13 00:19:24;;;;;;;0.57;0.57;;;;;;;;;;6213884;23;20413;-66
2023/04/13 00:21:53;;;;;;;1.03;0.50;;;;;;;;;;6215968;23;20517;-66
2023/04/13 00:24:19;;;;;;;0.60;0.60;;;;;;;;;;6215770;23;20379;-66
2023/04/13 00:26:45;;;;;;;2.30;0.60;;;;;;;;;;6215768;23;20379;-66
2023/04/13 00:29:11;;;;;;;0.93;0.40;;;;;;;;;;6216519;23;20368;-66
2023/04/13 00:31:38;;;;;;;3.60;0.53;;;;;;;;;;6215642;23;20717;-66
2023/04/13 00:34:04;;;;;;;0.50;0.47;;;;;;;;;;6215384;23;20466;-67
2023/04/13 00:36:30;;;;;;;0.60;0.60;;;;;;;;;;6215409;23;20707;-66
2023/04/13 00:38:57;;;;;;;1.43;0.50;;;;;;;;;;6215471;23;20426;-66
2023/04/13 00:41:24;;;;;;;0.50;0.50;;;;;;;;;;6215027;23;20443;-65
2023/04/13 00:43:51;;;;;;;0.50;0.50;;;;;;;;;;6215710;23;20391;-65
2023/04/13 00:46:18;;;;;;;2.03;0.50;;;;;;;;;;6215548;23;20379;-66
2023/04/13 00:48:44;;;;;;;1.30;0.90;;;;;;;;;;6215181;23;20865;-66
2023/04/13 00:51:12;;;;;;;1.33;0.70;;;;;;;;;;6215537;23;20379;-66
2023/04/13 00:53:39;;;;;;;3.10;0.70;;;;;;;;;;6215330;23;20379;-66
2023/04/13 00:56:05;;;;;;;0.67;0.50;;;;;;;;;;6215577;23;20375;-66
2023/04/13 00:58:32;;;;;;;4.17;0.80;;;;;;;;;;6215538;23;20386;-66
2023/04/13 01:00:58;;;;;;;7.60;0.67;;;;;;;;;;6215570;23;20856;-66
2023/04/13 01:03:24;;;;;;;0.50;0.50;;;;;;;;;;6215619;23;20383;-66
2023/04/13 01:05:53;;;;;;;1.90;0.70;;;;;;;;;;6215515;23;20371;-66
2023/04/13 01:08:35;;;;;;;0.93;0.40;;;;;;;;;;6215325;23;20760;-66
2023/04/13 01:11:25;;;;;;;4.33;0.70;;;;;;;;;;6215415;23;20375;-66
2023/04/13 01:13:57;;;;;;;0.47;0.47;;;;;;;;;;6215590;23;20409;-66
2023/04/13 01:16:26;;;;;;;0.60;0.60;;;;;;;;;;6215510;23;20363;-66
2023/04/13 01:18:53;;;;;;;1.20;0.53;;;;;;;;;;6215292;23;20413;-66
2023/04/13 01:21:21;;;;;;;0.63;0.57;;;;;;;;;;6214996;23;20425;-66
2023/04/13 01:23:56;;;;;;;3.70;0.50;;;;;;;;;;6218149;23;20387;-66
2023/04/13 01:26:22;;;;;;;0.40;0.40;;;;;;;;;;6217469;23;20343;-66
2023/04/13 01:28:50;;;;;;;0.87;0.40;;;;;;;;;;6217064;23;20379;-65
2023/04/13 01:31:16;;;;;;;0.60;0.60;;;;;;;;;;6217057;23;20371;-66
2023/04/13 01:33:45;;;;;;;0.60;0.50;;;;;;;;;;6217416;23;20372;-66
2023/04/13 01:36:12;;;;;;;1.13;0.40;;;;;;;;;;6217285;23;20379;-65
2023/04/13 01:38:38;;;;;;;2.93;0.70;;;;;;;;;;6217846;23;20474;-66
2023/04/13 01:41:04;;;;;;;0.50;0.50;;;;;;;;;;6216665;23;20427;-66
2023/04/13 01:43:30;;;;;;;1.30;0.43;;;;;;;;;;6216881;23;20394;-66
2023/04/13 01:46:03;;;;;;;4.13;0.83;;;;;;;;;;6216852;23;20458;-66
2023/04/13 01:48:32;;;;;;;0.80;0.80;;;;;;;;;;6217283;23;20379;-66
2023/04/13 01:51:00;;;;;;;4.20;0.97;;;;;;;;;;6217033;23;20383;-66
2023/04/13 01:53:30;;;;;;;0.90;0.53;;;;;;;;;;6217398;23;20453;-66
2023/04/13 01:55:57;;;;;;;2.43;0.60;;;;;;;;;;6216799;23;20410;-66
2023/04/13 01:58:26;;;;;;;1.13;0.60;;;;;;;;;;6216836;23;20705;-65
2023/04/13 02:00:53;;;;;;;0.53;0.53;;;;;;;;;;6216810;23;20367;-66
2023/04/13 02:03:21;;;;;;;0.80;0.60;;;;;;;;;;6217053;23;20398;-66
2023/04/13 02:05:49;;;;;;;0.40;0.40;;;;;;;;;;6216928;23;20383;-66
2023/04/13 02:08:17;;;;;;;0.50;0.50;;;;;;;;;;6216710;23;20394;-65
2023/04/13 02:10:43;;;;;;;4.33;0.50;;;;;;;;;;6217357;23;20371;-65
2023/04/13 02:13:09;;;;;;;1.40;0.60;;;;;;;;;;6216952;23;20895;-66
2023/04/13 02:15:36;;;;;;;2.60;0.77;;;;;;;;;;6216375;23;20697;-66
2023/04/13 02:18:04;;;;;;;1.43;0.87;;;;;;;;;;6215719;23;20429;-66
2023/04/13 02:20:39;;;;;;;0.87;0.63;;;;;;;;;;6216380;23;20372;-66
2023/04/13 02:23:07;;;;;;;2.10;0.50;;;;;;;;;;6215234;23;20536;-66
2023/04/13 02:25:33;;;;;;;4.33;0.90;;;;;;;;;;6216580;23;20368;-66
2023/04/13 02:28:00;;;;;;;0.53;0.50;;;;;;;;;;6216364;23;20379;-65
2023/04/13 02:30:26;;;;;;;0.50;0.50;;;;;;;;;;6216947;23;20759;-66
2023/04/13 02:32:53;;;;;;;0.43;0.43;;;;;;;;;;6216334;23;20360;-67
2023/04/13 02:38:23;;;;;;;2.40;0.70;;;;;;;;;;6216459;23;20390;-66
2023/04/13 02:40:53;;;;;;;6.63;0.60;;;;;;;;;;6214508;23;20443;-65
2023/04/13 02:43:19;;;;;;;2.33;0.70;;;;;;;;;;6216267;23;20398;-66
2023/04/13 02:45:45;;;;;;;1.73;0.57;;;;;;;;;;6216713;23;20770;-65
2023/04/13 02:48:12;;;;;;;0.80;0.80;;;;;;;;;;6216138;23;20884;-66
2023/04/13 02:50:38;;;;;;;4.03;0.67;;;;;;;;;;6216230;23;20816;-66
2023/04/13 02:53:04;;;;;;;0.70;0.70;;;;;;;;;;6216307;23;20386;-66
2023/04/13 02:55:30;;;;;;;2.00;0.60;;;;;;;;;;6216239;23;20444;-65
2023/04/13 02:57:56;;;;;;;0.70;0.40;;;;;;;;;;6216426;23;20417;-66
2023/04/13 03:00:24;;;;;;;0.53;0.40;;;;;;;;;;6216513;23;20371;-65
2023/04/13 03:02:52;;;;;;;3.23;0.80;;;;;;;;;;6216432;23;20462;-66
2023/04/13 03:05:18;;;;;;;9.00;0.60;;;;;;;;;;6216446;23;20379;-65
2023/04/13 03:07:45;;;;;;;1.50;0.50;;;;;;;;;;6216409;23;20390;-66
2023/04/13 03:10:11;;;;;;;5.40;0.83;;;;;;;;;;6216281;23;20425;-66
2023/04/13 03:12:37;;;;;;;3.20;0.60;;;;;;;;;;6216134;23;20398;-66
2023/04/13 03:15:06;;;;;;;7.83;0.50;;;;;;;;;;6216026;23;20861;-66
2023/04/13 03:17:32;;;;;;;3.67;1.10;;;;;;;;;;6216342;23;20383;-65
2023/04/13 03:19:58;;;;;;;0.93;0.50;;;;;;;;;;6215897;23;20386;-66
2023/04/13 03:22:29;;;;;;;0.60;0.60;;;;;;;;;;6216200;23;20435;-66
2023/04/13 03:24:55;;;;;;;1.90;0.50;;;;;;;;;;6215954;23;20452;-66
2023/04/13 03:27:21;;;;;;;0.80;0.70;;;;;;;;;;6216307;23;20387;-66
2023/04/13 03:29:48;;;;;;;0.73;0.50;;;;;;;;;;6216016;23;20386;-65
2023/04/13 03:32:14;;;;;;;1.27;0.63;;;;;;;;;;6215869;23;20860;-66
2023/04/13 03:34:42;;;;;;;1.43;0.63;;;;;;;;;;6215905;23;20842;-66
2023/04/13 03:37:09;;;;;;;0.50;0.50;;;;;;;;;;6216223;23;20383;-66
2023/04/13 03:39:35;;;;;;;2.23;0.70;;;;;;;;;;6216220;23;20422;-66
2023/04/13 03:42:02;;;;;;;5.50;0.80;;;;;;;;;;6216377;23;20498;-66
2023/04/13 03:44:28;;;;;;;1.30;0.70;;;;;;;;;;6215950;23;20383;-66
2023/04/13 03:46:54;;;;;;;1.03;0.80;;;;;;;;;;6215904;23;20377;-66
2023/04/13 03:49:20;;;;;;;2.80;1.00;;;;;;;;;;6216131;23;20375;-66
2023/04/13 03:51:46;;;;;;;2.83;0.90;;;;;;;;;;6215695;23;20768;-66
2023/04/13 03:54:12;;;;;;;6.20;1.20;;;;;;;;;;6216448;23;20367;-66
2023/04/13 03:56:38;;;;;;;4.10;1.00;;;;;;;;;;6215754;23;20933;-65
2023/04/13 03:59:04;;;;;;;1.30;0.87;;;;;;;;;;6216016;23;20496;-66
2023/04/13 04:01:30;;;;;;;0.60;0.60;;;;;;;;;;6215775;23;20461;-66
2023/04/13 04:03:56;;;;;;;7.40;1.20;;;;;;;;;;6215968;23;20367;-65
2023/04/13 04:06:28;;;;;;;0.70;0.70;;;;;;;;;;6215963;23;20384;-66
2023/04/13 04:08:54;;;;;;;1.83;1.07;;;;;;;;;;6215924;23;20371;-65
2023/04/13 04:11:21;;;;;;;1.50;0.67;;;;;;;;;;6215887;23;20470;-66
2023/04/13 04:13:47;;;;;;;1.97;0.80;;;;;;;;;;6215620;23;20442;-66
2023/04/13 04:16:13;;;;;;;0.80;0.80;;;;;;;;;;6215736;23;20414;-66
2023/04/13 04:18:39;;;;;;;5.03;1.00;;;;;;;;;;6213960;23;20398;-66
2023/04/13 04:21:05;;;;;;;4.73;0.83;;;;;;;;;;6215334;23;20956;-65
2023/04/13 04:23:33;;;;;;;0.97;0.97;;;;;;;;;;6215989;23;20384;-66
2023/04/13 04:26:01;;;;;;;3.20;1.00;;;;;;;;;;6215554;23;20371;-68
2023/04/13 04:28:29;;;;;;;6.30;1.33;;;;;;;;;;6215637;23;20387;-66
2023/04/13 04:30:55;;;;;;;0.80;0.80;;;;;;;;;;6215764;23;20390;-66
2023/04/13 04:33:21;;;;;;;0.90;0.63;;;;;;;;;;6215841;23;20382;-65
2023/04/13 04:35:49;;;;;;;2.00;0.90;;;;;;;;;;6215415;23;20466;-66
2023/04/13 04:38:16;;;;;;;1.27;1.00;;;;;;;;;;6213865;23;20401;-65
2023/04/13 04:40:44;;;;;;;4.63;1.10;;;;;;;;;;6215276;23;20480;-65
2023/04/13 04:43:12;;;;;;;3.80;1.70;;;;;;;;;;6215652;23;20888;-66
2023/04/13 04:45:40;;;;;;;2.53;1.00;;;;;;;;;;6215475;23;20410;-66
2023/04/13 04:48:06;;;;;;;1.00;0.77;;;;;;;;;;6215736;23;20713;-66
2023/04/13 04:50:32;;;;;;;1.90;0.90;;;;;;;;;;6215336;23;20706;-65
2023/04/13 04:52:59;;;;;;;1.50;0.63;;;;;;;;;;6215801;23;20386;-66
2023/04/13 04:55:25;;;;;;;4.13;0.80;;;;;;;;;;6215808;23;20421;-65
2023/04/13 04:57:51;;;;;;;3.40;0.90;;;;;;;;;;6217094;23;20375;-65
2023/04/13 05:00:17;;;;;;;1.47;0.90;;;;;;;;;;6217279;23;20433;-65
2023/04/13 05:02:43;;;;;;;3.30;0.73;;;;;;;;;;6217745;23;20435;-65
2023/04/13 05:05:10;;;;;;;1.70;1.60;;;;;;;;;;6217638;23;20386;-65
2023/04/13 05:07:37;;;;;;;7.87;0.93;;;;;;;;;;6217311;23;20379;-65
2023/04/13 05:10:03;;;;;;;0.90;0.90;;;;;;;;;;6217252;23;20488;-66
2023/04/13 05:12:29;;;;;;;6.37;4.50;;;;;;;;;;6217637;23;20383;-69
2023/04/13 05:14:55;;;;;;;13.27;7.53;;;;;;;;;;6217354;23;20944;-68
2023/04/13 05:17:24;;;;;;;16.50;6.23;;;;;;;;;;6217216;23;20415;-72
2023/04/13 05:19:50;;;;;;;3.70;3.40;;;;;;;;;;6214537;23;20849;-67
2023/04/13 05:22:17;;;;;;;2.00;1.43;;;;;;;;;;6217230;23;20459;-70
2023/04/13 05:24:43;;;;;;;2.63;1.00;;;;;;;;;;6217433;23;20377;-69
2023/04/13 05:27:10;;;;;;;1.47;1.20;;;;;;;;;;6216969;23;20494;-73
2023/04/13 05:29:36;;;;;;;5.93;1.17;;;;;;;;;;6216947;23;20367;-68
2023/04/13 05:32:02;;;;;;;3.47;0.80;;;;;;;;;;6216574;23;20911;-66
2023/04/13 05:34:28;;;;;;;2.43;1.20;;;;;;;;;;6216964;23;20421;-67
2023/04/13 05:36:56;;;;;;;2.20;1.10;;;;;;;;;;6217729;23;20386;-70
2023/04/13 05:39:23;;;;;;;3.33;1.17;;;;;;;;;;6217277;23;20418;-68
2023/04/13 05:41:50;;;;;;;6.03;0.80;;;;;;;;;;6217230;23;20554;-66
2023/04/13 05:44:16;;;;;;;3.67;0.90;;;;;;;;;;6217023;23;20375;-66
2023/04/13 05:46:42;;;;;;;1.33;1.27;;;;;;;;;;6217295;23;20410;-66
2023/04/13 05:49:08;;;;;;;4.10;1.60;;;;;;;;;;6217003;23;20379;-69
2023/04/13 05:51:34;;;;;;;2.23;1.10;;;;;;;;;;6216509;23;20700;-69
2023/04/13 05:54:01;;;;;;;1.47;0.70;;;;;;;;;;6217183;23;20383;-76
2023/04/13 05:56:28;;;;;;;1.53;1.10;;;;;;;;;;6216934;23;20379;-70
2023/04/13 05:58:55;;;;;;;0.90;0.73;;;;;;;;;;6217127;23;20433;-71
2023/04/13 06:01:23;;;;;;;2.27;0.90;;;;;;;;;;6216617;23;20862;-77
2023/04/13 06:03:51;;;;;;;2.40;0.80;;;;;;;;;;6216759;23;20386;-66
2023/04/13 06:06:17;;;;;;;4.13;0.87;;;;;;;;;;6217073;23;20916;-70
2023/04/13 06:08:43;;;;;;;7.03;1.77;;;;;;;;;;6216410;23;20379;-68
2023/04/13 06:11:09;;;;;;;6.53;0.83;;;;;;;;;;6216546;23;20456;-73
2023/04/13 06:13:35;;;;;;;6.07;1.63;;;;;;;;;;6215262;23;20770;-73
2023/04/13 06:16:01;;;;;;;3.00;0.80;;;;;;;;;;6216966;23;20422;-68
2023/04/13 06:18:28;;;;;;;5.93;0.80;;;;;;;;;;6216507;23;20383;-73
2023/04/13 06:20:54;;;;;;;2.40;0.70;;;;;;;;;;6216614;23;20454;-74
2023/04/13 06:23:20;;;;;;;3.73;1.20;;;;;;;;;;6216183;23;20740;-72
2023/04/13 06:25:46;;;;;;;4.77;0.93;;;;;;;;;;6216602;23;20406;-67
2023/04/13 06:28:12;;;;;;;4.17;1.33;;;;;;;;;;6217206;23;20469;-69
2023/04/13 06:30:38;;;;;;;5.50;0.87;;;;;;;;;;6216570;23;20805;-67
2023/04/13 06:33:05;;;;;;;2.97;1.10;;;;;;;;;;6217114;23;20372;-67
2023/04/13 06:35:32;;;;;;;3.50;1.27;;;;;;;;;;6216344;23;20379;-69
2023/04/13 06:38:00;;;;;;;9.43;1.67;;;;;;;;;;6216558;23;20478;-77
2023/04/13 06:40:26;;;;;;;3.00;1.20;;;;;;;;;;6216589;23;20470;-70
2023/04/13 06:42:53;;;;;;;5.40;1.50;;;;;;;;;;6216096;23;20935;-70
2023/04/13 06:45:20;;;;;;;4.07;1.50;;;;;;;;;;6216654;23;20375;-70
2023/04/13 06:47:46;;;;;;;1.00;1.00;;;;;;;;;;6216621;23;20383;-74
2023/04/13 06:50:16;;;;;;;7.67;1.60;;;;;;;;;;6217530;23;20458;-69
2023/04/13 06:52:42;;;;;;;3.73;1.03;;;;;;;;;;6216743;23;20411;-75
2023/04/13 06:55:08;;;;;;;3.50;1.23;;;;;;;;;;6216363;23;20410;-68
2023/04/13 06:57:34;;;;;;;3.57;1.57;;;;;;;;;;6216270;23;20375;-72
2023/04/13 07:00:00;;;;;;;7.33;1.70;;;;;;;;;;6214663;23;20801;-71
2023/04/13 07:02:26;;;;;;;2.73;0.70;;;;;;;;;;6216378;23;20438;-77
2023/04/13 07:04:52;;;;;;;7.50;1.13;;;;;;;;;;6216186;23;20401;-73
2023/04/13 07:07:18;;;;;;;3.07;1.23;;;;;;;;;;6216466;23;20445;-77
2023/04/13 07:09:45;;;;;;;3.60;0.90;;;;;;;;;;6216164;23;20710;-75
2023/04/13 07:12:11;;;;;;;3.63;1.83;;;;;;;;;;6216297;23;20910;-73
2023/04/13 07:14:38;;;;;;;3.07;1.10;;;;;;;;;;6216462;23;20425;-69
2023/04/13 07:17:04;;;;;;;1.00;1.00;;;;;;;;;;6215991;23;20445;-71
2023/04/13 07:19:31;;;;;;;1.47;0.73;;;;;;;;;;6216032;23;20386;-76
2023/04/13 07:21:58;;;;;;;7.13;1.43;;;;;;;;;;6216358;23;20438;-78
2023/04/13 07:24:26;;;;;;;2.93;1.00;;;;;;;;;;6215992;23;20867;-73
2023/04/13 07:29:55;;;;;;;0.97;0.83;;;;;;;;;;6216085;23;20770;-76
2023/04/13 07:32:21;;;;;;;6.63;1.60;;;;;;;;;;6216019;23;20367;-69
2023/04/13 07:34:47;;;;;;;2.67;1.53;;;;;;;;;;6216290;23;20457;-70
2023/04/13 07:37:13;;;;;;;8.20;1.07;;;;;;;;;;6216281;23;20476;-69
2023/04/13 07:39:40;;;;;;;2.67;1.53;;;;;;;;;;6215804;23;20429;-69
2023/04/13 07:42:06;;;;;;;2.17;1.07;;;;;;;;;;6216112;23;20458;-83
2023/04/13 07:44:33;;;;;;;3.40;1.27;;;;;;;;;;6215948;23;20402;-78
2023/04/13 07:46:59;;;;;;;1.17;1.00;;;;;;;;;;6215854;23;20923;-70
2023/04/13 07:49:25;;;;;;;1.50;1.10;;;;;;;;;;6214203;23;20402;-73
2023/04/13 07:51:53;;;;;;;2.37;1.20;;;;;;;;;;6216370;23;20692;-72
2023/04/13 07:54:19;;;;;;;5.73;1.13;;;;;;;;;;6215705;23;20386;-71
2023/04/13 07:56:45;;;;;;;6.80;1.67;;;;;;;;;;6216021;23;20464;-69
2023/04/13 07:59:12;;;;;;;1.23;1.00;;;;;;;;;;6215859;23;20755;-67
2023/04/13 08:01:38;;;;;;;6.50;1.30;;;;;;;;;;6215819;23;20431;-68
2023/04/13 08:04:05;;;;;;;4.87;0.90;;;;;;;;;;6215679;23;20383;-68
2023/04/13 08:06:32;;;;;;;1.37;1.27;;;;;;;;;;6215737;23;20372;-74
2023/04/13 08:08:57;;;;;;;1.77;0.93;;;;;;;;;;6214096;23;20825;-75
2023/04/13 08:11:23;;;;;;;6.00;1.10;;;;;;;;;;6215834;23;20845;-63
2023/04/13 08:13:50;;;;;;;5.90;1.50;;;;;;;;;;6215666;23;20845;-68
2023/04/13 08:16:16;;;;;;;3.67;1.10;;;;;;;;;;6214050;23;20973;-70
2023/04/13 08:18:42;;;;;;;4.07;1.13;;;;;;;;;;6215579;23;20411;-69
2023/04/13 08:21:11;;;;;;;4.87;1.20;;;;;;;;;;6215736;23;20737;-75
2023/04/13 08:23:41;;;;;;;26.33;10.47;;;;;;;;;;6215906;23;20471;-73
2023/04/13 08:29:12;;;;;;;2.93;1.00;;;;;;;;;;6215685;23;20446;-69
2023/04/13 08:31:39;;;;;;;10.83;1.40;;;;;;;;;;6215332;23;20466;-73
2023/04/13 08:34:05;;;;;;;6.50;1.00;;;;;;;;;;6215635;23;20465;-67
2023/04/13 08:36:32;;;;;;;4.63;1.53;;;;;;;;;;6215421;23;20705;-67
2023/04/13 08:38:58;;;;;;;3.27;1.10;;;;;;;;;;6215834;23;20452;-69
2023/04/13 08:41:25;;;;;;;1.10;1.07;;;;;;;;;;6215033;23;20423;-68
2023/04/13 08:43:51;;;;;;;2.20;1.43;;;;;;;;;;6213824;23;20410;-67
2023/04/13 08:46:21;;;;;;;8.87;1.87;;;;;;;;;;6215797;23;20375;-65
2023/04/13 08:48:47;;;;;;;4.67;1.30;;;;;;;;;;6215519;23;20383;-77
2023/04/13 08:51:13;;;;;;;6.10;1.57;;;;;;;;;;6215463;23;20679;-71
2023/04/13 08:53:40;;;;;;;6.23;2.60;;;;;;;;;;6216408;23;20494;-64
2023/04/13 08:56:10;;;;;;;4.20;2.70;;;;;;;;;;6215720;23;20367;-71
2023/04/13 08:58:37;;;;;;;2.60;1.03;;;;;;;;;;6189742;23;20363;-68
2023/04/13 09:01:05;;;;;;;5.77;1.37;;;;;;;;;;6215413;23;20367;-68
2023/04/13 09:03:36;;;;;;;6.43;1.30;;;;;;;;;;6215682;23;20752;-71
2023/04/13 09:06:04;;;;;;;2.53;0.83;;;;;;;;;;6215372;23;20825;-69
2023/04/13 09:08:35;;;;;;;1.03;0.67;;;;;;;;;;6215726;23;20465;-69
2023/04/13 09:11:03;;;;;;;1.27;1.13;;;;;;;;;;6215518;23;20375;-72
2023/04/13 09:13:30;;;;;;;0.90;0.90;;;;;;;;;;6215781;23;20367;-72
2023/04/13 09:15:56;;;;;;;1.87;0.60;;;;;;;;;;6215328;23;20376;-71
2023/04/13 09:18:22;;;;;;;2.27;1.10;;;;;;;;;;6215530;23;20437;-67
2023/04/13 09:20:55;;;;;;;6.07;1.07;;;;;;;;;;6215661;23;20367;-68
2023/04/13 09:23:21;;;;;;;8.13;1.00;;;;;;;;;;6215109;23;20422;-69
2023/04/13 09:25:47;;;;;;;3.30;0.80;;;;;;;;;;6215212;23;20857;-71
2023/04/13 09:28:20;;;;;;;2.60;1.10;;;;;;;;;;6215483;23;20376;-78
2023/04/13 09:30:46;;;;;;;3.50;1.37;;;;;;;;;;6215627;23;20382;-78
2023/04/13 09:33:12;;;;;;;1.73;1.10;;;;;;;;;;6215590;23;20375;-74
2023/04/13 09:35:39;;;;;;;3.10;0.93;;;;;;;;;;6215472;23;20375;-77
2023/04/13 09:38:06;;;;;;;2.13;1.10;;;;;;;;;;6215195;23;20375;-67
2023/04/13 09:40:33;;;;;;;2.60;1.27;;;;;;;;;;6214938;23;20513;-66
2023/04/13 09:43:00;;;;;;;10.60;1.40;;;;;;;;;;6215688;23;20433;-70
2023/04/13 09:45:33;;;;;;;6.53;1.70;;;;;;;;;;6217373;23;20421;-68
2023/04/13 09:48:01;;;;;;;2.53;1.20;;;;;;;;;;6217151;23;20398;-74
2023/04/13 09:50:27;;;;;;;6.07;0.93;;;;;;;;;;6216853;23;20864;-71
2023/04/13 09:52:59;;;;;;;1.13;0.77;;;;;;;;;;6217008;23;20387;-70
2023/04/13 09:55:26;;;;;;;0.47;0.47;;;;;;;;;;6216789;23;20719;-70
2023/04/13 09:57:52;;;;;;;0.93;0.60;;;;;;;;;;6217020;23;20385;-75
2023/04/13 10:00:22;;;;;;;2.10;0.70;;;;;;;;;;6217140;23;20713;-68
2023/04/13 10:02:49;;;;;;;2.20;0.80;;;;;;;;;;6215228;23;20438;-67
2023/04/13 10:05:16;;;;;;;4.20;1.00;;;;;;;;;;6217134;23;20383;-66
2023/04/13 10:07:43;;;;;;;1.37;1.27;;;;;;;;;;6190849;23;20375;-66
2023/04/13 10:10:09;;;;;;;2.40;1.80;;;;;;;;;;6216623;23;20442;-67
2023/04/13 10:12:40;;;;;;;4.90;4.43;;;;;;;;;;6217072;23;20398;-68
2023/04/13 10:15:30;;;;;;;6.17;1.70;;;;;;;;;;6217084;23;20382;-68
2023/04/13 10:18:04;;;;;;;1.57;1.40;;;;;;;;;;6217033;23;20375;-67
2023/04/13 10:20:31;;;;;;;2.20;0.87;;;;;;;;;;6217353;23;20686;-67
2023/04/13 10:22:57;;;;;;;1.83;0.90;;;;;;;;;;6216527;23;21065;-69
2023/04/13 10:25:23;;;;;;;1.13;0.67;;;;;;;;;;6216872;23;20686;-66
2023/04/13 10:27:59;;;;;;;0.73;0.73;;;;;;;;;;6216397;23;20379;-66
2023/04/13 10:30:26;;;;;;;1.33;0.90;;;;;;;;;;6216492;23;20852;-68
2023/04/13 10:33:04;;;;;;;2.73;1.33;;;;;;;;;;6216905;23;20391;-67
2023/04/13 10:35:30;;;;;;;0.60;0.60;;;;;;;;;;6216429;23;20383;-67
2023/04/13 10:37:57;;;;;;;1.33;0.53;;;;;;;;;;6216379;23;20430;-69
2023/04/13 10:40:23;;;;;;;1.03;0.60;;;;;;;;;;6214620;23;20461;-68
2023/04/13 10:42:50;;;;;;;0.80;0.70;;;;;;;;;;6214814;23;20530;-67
2023/04/13 10:45:24;;;;;;;3.43;0.90;;;;;;;;;;6216732;23;20785;-67
2023/04/13 10:47:51;;;;;;;2.00;1.60;;;;;;;;;;6216357;23;20374;-67
2023/04/13 10:50:20;;;;;;;0.60;0.60;;;;;;;;;;6216672;23;20407;-67
2023/04/13 10:53:03;;;;;;;3.20;1.57;;;;;;;;;;6216709;23;20386;-67
2023/04/13 10:55:29;;;;;;;3.07;2.90;;;;;;;;;;6216428;23;20375;-68
2023/04/13 10:57:57;;;;;;;1.00;1.00;;;;;;;;;;6216575;23;20713;-67
2023/04/13 11:00:24;;;;;;;7.07;6.00;;;;;;;;;;6216524;23;20378;-70
2023/04/13 11:02:52;;;;;;;11.20;8.30;;;;;;;;;;6216536;23;20437;-67
2023/04/13 11:05:21;;;;;;;4.47;2.83;;;;;;;;;;6216244;23;20375;-68
2023/04/13 11:07:48;;;;;;;2.40;2.30;;;;;;;;;;6216579;23;20389;-68
2023/04/13 11:10:15;;;;;;;1.37;1.20;;;;;;;;;;6216344;23;20482;-69
2023/04/13 11:12:50;;;;;;;4.10;1.97;;;;;;;;;;6216491;23;20375;-67
2023/04/13 11:15:23;;;;;;;2.60;1.77;;;;;;;;;;6216169;23;20772;-67
2023/04/13 11:17:51;;;;;;;6.10;3.20;;;;;;;;;;6216784;23;20359;-67
2023/04/13 11:20:17;;;;;;;5.13;1.63;;;;;;;;;;6215969;23;20872;-66
2023/04/13 11:22:43;;;;;;;1.90;1.03;;;;;;;;;;6216330;23;20462;-68
2023/04/13 11:25:09;;;;;;;1.50;1.40;;;;;;;;;;6216280;23;20382;-68
2023/04/13 11:27:36;;;;;;;2.30;1.97;;;;;;;;;;6216004;23;20387;-67
2023/04/13 11:30:06;;;;;;;0.97;0.97;;;;;;;;;;6216261;23;20410;-67
2023/04/13 11:32:35;;;;;;;2.83;1.30;;;;;;;;;;6216641;23;20398;-69
2023/04/13 11:35:13;;;;;;;3.13;1.13;;;;;;;;;;6216000;23;20381;-71
2023/04/13 11:37:40;;;;;;;1.37;1.00;;;;;;;;;;6216006;23;20469;-70
2023/04/13 11:40:16;;;;;;;4.00;1.30;;;;;;;;;;6215351;23;20434;-71
2023/04/13 11:42:42;;;;;;;1.10;0.80;;;;;;;;;;6215776;23;20484;-74
2023/04/13 11:45:09;;;;;;;1.03;0.70;;;;;;;;;;6215910;23;20394;-73
2023/04/13 11:47:35;;;;;;;7.03;0.93;;;;;;;;;;6215815;23;20376;-77
2023/04/13 11:50:02;;;;;;;1.30;0.57;;;;;;;;;;6216722;23;20466;-74
2023/04/13 11:52:28;;;;;;;0.60;0.60;;;;;;;;;;6216169;23;20841;-71
2023/04/13 11:54:54;;;;;;;2.50;1.13;;;;;;;;;;6216030;23;20398;-68
2023/04/13 11:57:21;;;;;;;2.73;0.93;;;;;;;;;;6216088;23;20379;-68
2023/04/13 11:59:47;;;;;;;1.10;1.10;;;;;;;;;;6216007;23;20375;-71
2023/04/13 12:02:13;;;;;;;2.00;1.23;;;;;;;;;;6216134;23;20454;-76
2023/04/13 12:04:39;;;;;;;1.73;0.53;;;;;;;;;;6215990;23;20378;-74
2023/04/13 12:07:12;;;;;;;1.23;0.70;;;;;;;;;;6215412;23;20872;-72
2023/04/13 12:09:42;;;;;;;0.93;0.67;;;;;;;;;;6215811;23;20395;-76
2023/04/13 12:12:15;;;;;;;10.10;1.03;;;;;;;;;;6215636;23;20437;-78
2023/04/13 12:14:41;;;;;;;0.87;0.87;;;;;;;;;;6215532;23;20458;-74
2023/04/13 12:17:10;;;;;;;2.13;1.00;;;;;;;;;;6215564;23;20421;-76
2023/04/13 12:19:39;;;;;;;0.97;0.70;;;;;;;;;;6215737;23;20478;-74
2023/04/13 12:22:05;;;;;;;2.37;0.70;;;;;;;;;;6215384;23;20759;-72
2023/04/13 12:24:33;;;;;;;0.80;0.60;;;;;;;;;;6215739;23;20379;-67
2023/04/13 12:27:02;;;;;;;1.10;1.00;;;;;;;;;;6215527;23;20687;-75
2023/04/13 12:29:28;;;;;;;3.40;0.70;;;;;;;;;;6214879;23;20915;-71
2023/04/13 12:31:59;;;;;;;1.17;0.70;;;;;;;;;;6215194;23;20367;-72
2023/04/13 12:34:25;;;;;;;0.70;0.53;;;;;;;;;;6215144;23;20372;-70
2023/04/13 12:39:54;;;;;;;4.53;1.10;;;;;;;;;;6215196;23;20418;-74
2023/04/13 12:42:20;;;;;;;4.77;1.00;;;;;;;;;;6215300;23;20434;-70
2023/04/13 12:44:46;;;;;;;1.17;1.07;;;;;;;;;;6215522;23;20383;-73
2023/04/13 12:47:12;;;;;;;2.73;0.97;;;;;;;;;;6215329;23;20387;-69
2023/04/13 12:49:38;;;;;;;0.60;0.60;;;;;;;;;;6215375;23;20474;-69
2023/04/13 12:52:04;;;;;;;0.80;0.67;;;;;;;;;;6216661;23;20833;-70
2023/04/13 12:54:30;;;;;;;2.00;0.73;;;;;;;;;;6215338;23;20501;-68
2023/04/13 12:56:56;;;;;;;1.90;0.83;;;;;;;;;;6213779;23;20474;-67
2023/04/13 12:59:22;;;;;;;3.93;1.50;;;;;;;;;;6215252;23;20704;-72
2023/04/13 13:01:48;;;;;;;2.07;0.70;;;;;;;;;;6215386;23;20469;-67
2023/04/13 13:04:14;;;;;;;2.20;1.10;;;;;;;;;;6215299;23;20375;-72
2023/04/13 13:06:41;;;;;;;1.00;1.00;;;;;;;;;;6215340;23;20756;-69
2023/04/13 13:09:07;;;;;;;1.27;1.00;;;;;;;;;;6215671;23;20367;-68
2023/04/13 13:11:34;;;;;;;1.33;1.23;;;;;;;;;;6215543;23;20519;-67
2023/04/13 13:14:00;;;;;;;1.70;0.70;;;;;;;;;;6213806;23;20379;-69
2023/04/13 13:16:26;;;;;;;0.87;0.87;;;;;;;;;;6215680;23;20911;-68
2023/04/13 13:18:52;;;;;;;3.17;1.27;;;;;;;;;;6216532;23;20698;-68
2023/04/13 13:21:18;;;;;;;4.43;0.87;;;;;;;;;;6217017;23;20707;-67
2023/04/13 13:23:44;;;;;;;4.10;0.80;;;;;;;;;;6217501;23;20436;-69
2023/04/13 13:26:11;;;;;;;2.60;0.80;;;;;;;;;;6217129;23;20810;-67
2023/04/13 13:28:37;;;;;;;0.87;0.87;;;;;;;;;;6217399;23;20390;-68
2023/04/13 13:31:03;;;;;;;4.50;0.70;;;;;;;;;;6217791;23;20461;-67
2023/04/13 13:33:29;;;;;;;1.53;1.23;;;;;;;;;;6217395;23;20383;-68
2023/04/13 13:35:55;;;;;;;4.80;0.60;;;;;;;;;;6217494;23;20433;-68
2023/04/13 13:38:21;;;;;;;1.20;0.80;;;;;;;;;;6217376;23;20379;-67
2023/04/13 13:40:47;;;;;;;4.43;0.87;;;;;;;;;;6216950;23;20431;-68
2023/04/13 13:43:13;;;;;;;2.23;1.13;;;;;;;;;;6217266;23;20431;-69
2023/04/13 13:45:39;;;;;;;4.40;1.27;;;;;;;;;;6217248;23;20375;-68
2023/04/13 13:48:05;;;;;;;2.20;0.80;;;;;;;;;;6217384;23;20387;-67
2023/04/13 13:50:31;;;;;;;3.60;1.03;;;;;;;;;;6217263;23;20382;-67
2023/04/13 13:52:57;;;;;;;0.97;0.90;;;;;;;;;;6217226;23;20713;-67
2023/04/13 13:55:23;;;;;;;0.60;0.60;;;;;;;;;;6216868;23;20451;-67
2023/04/13 13:57:49;;;;;;;2.77;1.00;;;;;;;;;;6216860;23;20394;-67
2023/04/13 14:00:16;;;;;;;3.23;1.00;;;;;;;;;;6216865;23;20375;-67
2023/04/13 14:02:45;;;;;;;3.13;1.43;;;;;;;;;;6217676;23;20439;-67
2023/04/13 14:05:14;;;;;;;1.47;1.33;;;;;;;;;;6216832;23;20379;-67
2023/04/13 14:07:41;;;;;;;1.77;0.93;;;;;;;;;;6217186;23;20831;-68
2023/04/13 14:10:08;;;;;;;1.23;1.23;;;;;;;;;;6217010;23;20673;-67
2023/04/13 14:12:34;;;;;;;1.00;0.73;;;;;;;;;;6217163;23;20438;-67
2023/04/13 14:15:00;;;;;;;1.90;1.70;;;;;;;;;;6216817;23;20940;-67
2023/04/13 14:17:26;;;;;;;1.60;1.50;;;;;;;;;;6218006;23;20412;-67
2023/04/13 14:19:52;;;;;;;3.03;0.80;;;;;;;;;;6216700;23;20434;-67
2023/04/13 14:22:18;;;;;;;4.50;1.10;;;;;;;;;;6214979;23;20427;-67
2023/04/13 14:24:45;;;;;;;2.10;0.90;;;;;;;;;;6190342;23;20402;-67
2023/04/13 14:27:11;;;;;;;1.17;1.03;;;;;;;;;;6216905;23;20374;-67
2023/04/13 14:29:37;;;;;;;2.13;1.43;;;;;;;;;;6216647;23;20838;-67
2023/04/13 14:32:03;;;;;;;0.80;0.80;;;;;;;;;;6216904;23;20422;-67
2023/04/13 14:34:29;;;;;;;1.20;0.90;;;;;;;;;;6216580;23;20404;-67
2023/04/13 14:36:55;;;;;;;1.60;1.10;;;;;;;;;;6216911;23;20402;-67
2023/04/13 14:39:24;;;;;;;1.23;1.13;;;;;;;;;;6216500;23;20896;-67
2023/04/13 14:41:51;;;;;;;0.97;0.97;;;;;;;;;;6216346;23;20947;-67
2023/04/13 14:44:17;;;;;;;1.33;1.23;;;;;;;;;;6216398;23;20378;-67
2023/04/13 14:46:43;;;;;;;8.23;1.40;;;;;;;;;;6217080;23;20379;-67
2023/04/13 14:49:09;;;;;;;3.30;0.60;;;;;;;;;;6216749;23;20379;-68
2023/04/13 14:51:36;;;;;;;3.80;0.87;;;;;;;;;;6216364;23;20466;-67
2023/04/13 14:54:02;;;;;;;1.27;1.17;;;;;;;;;;6215241;23;20441;-66
2023/04/13 14:56:28;;;;;;;1.17;1.07;;;;;;;;;;6216616;23;20383;-67